Time;durP1;ratioP1;P1;durP2;ratioP2;P2;SDS_P1;SDS_P2;PMS_P1;PMS_P2;Temp;Humidity;BMP_temperature;BMP_pressure;BME280_temperature;BME280_humidity;BME280_pressure;Samples;Min_cycle;Max_cycle;Signal;HPM_P1;HPM_P2
2021/11/04 00:01:42;;;;;;;22.25;10.58;;;;;;;11.08;69.95;99103.33;2162438;82;30469;-65
2021/11/04 00:04:44;;;;;;;27.37;10.72;;;;;;;11.04;70.33;99106.72;2169835;80;27597;-65
2021/11/04 00:07:48;;;;;;;21.35;11.30;;;;;;;11.00;70.26;99097.67;2159896;82;29035;-66
2021/11/04 00:10:49;;;;;;;22.20;11.40;;;;;;;10.95;70.50;99100.66;2162940;82;31007;-66
2021/11/04 00:13:51;;;;;;;21.57;11.88;;;;;;;10.90;70.68;99096.97;2161657;82;33836;-67
2021/11/04 00:16:53;;;;;;;22.90;11.10;;;;;;;10.85;70.98;99099.10;2162028;82;30636;-66
2021/11/04 00:19:55;;;;;;;23.47;11.45;;;;;;;10.80;71.12;99099.93;2162243;82;27700;-67
2021/11/04 00:22:57;;;;;;;26.17;12.70;;;;;;;10.75;71.25;99100.72;2162328;82;29922;-63
2021/11/04 00:25:59;;;;;;;19.05;11.43;;;;;;;10.71;71.54;99098.75;2174228;80;32409;-66
2021/11/04 00:29:02;;;;;;;23.77;12.13;;;;;;;10.66;71.76;99099.54;2162758;82;32893;-66
2021/11/04 00:32:05;;;;;;;23.35;13.10;;;;;;;10.60;72.06;99092.80;2159723;81;30537;-66
2021/11/04 00:35:08;;;;;;;20.50;12.47;;;;;;;10.54;72.18;99086.52;2163040;80;27731;-65
2021/11/04 00:38:09;;;;;;;23.10;12.78;;;;;;;10.48;72.54;99086.46;2162590;82;29795;-66
2021/11/04 00:41:11;;;;;;;24.63;13.80;;;;;;;10.42;72.85;99081.55;2163319;82;31216;-66
2021/11/04 00:44:13;;;;;;;20.55;12.20;;;;;;;10.37;72.78;99074.27;2168178;80;33481;-65
2021/11/04 00:47:14;;;;;;;20.68;13.15;;;;;;;10.36;73.06;99075.70;2176037;80;29694;-62
2021/11/04 00:50:16;;;;;;;27.52;14.63;;;;;;;10.28;73.11;99067.73;2162683;82;27695;-66
2021/11/04 00:53:18;;;;;;;32.10;14.03;;;;;;;10.24;73.25;99058.69;2153432;82;29510;-65
2021/11/04 00:56:22;;;;;;;22.50;15.10;;;;;;;10.22;73.43;99049.89;2162345;82;32362;-65
2021/11/04 00:59:24;;;;;;;22.20;13.40;;;;;;;10.18;73.66;99043.41;2162763;82;34213;-66
2021/11/04 01:02:26;;;;;;;25.12;13.93;;;;;;;10.17;73.62;99031.48;2163436;82;29150;-65
2021/11/04 01:05:28;;;;;;;30.70;13.30;;;;;;;10.14;73.81;99020.48;2162668;80;28504;-65
2021/11/04 01:08:30;;;;;;;23.35;13.32;;;;;;;10.10;74.28;99016.30;2162695;82;29851;-65
2021/11/04 01:11:32;;;;;;;28.47;13.78;;;;;;;10.06;73.96;99005.45;2163630;82;31134;-63
2021/11/04 01:14:34;;;;;;;24.07;13.03;;;;;;;10.02;74.22;98999.93;2166953;80;32758;-64
2021/11/04 01:17:36;;;;;;;19.92;12.85;;;;;;;9.99;74.35;99002.34;2180726;81;30528;-61
2021/11/04 01:20:38;;;;;;;24.20;14.55;;;;;;;9.99;74.48;99014.84;2162338;82;27689;-65
2021/11/04 01:23:40;;;;;;;24.12;13.48;;;;;;;9.95;74.55;99000.83;2163059;82;28587;-65
2021/11/04 01:26:42;;;;;;;28.30;15.63;;;;;;;9.92;74.79;98997.02;2163695;80;31403;-61
2021/11/04 01:29:44;;;;;;;23.95;14.38;;;;;;;9.92;74.77;98985.48;2161933;82;32957;-60
2021/11/04 01:32:45;;;;;;;25.05;14.07;;;;;;;9.88;75.47;98983.47;2163359;82;29408;-61
2021/11/04 01:35:47;;;;;;;26.10;15.35;;;;;;;9.86;75.20;98995.63;2162445;80;27733;-62
2021/11/04 01:38:49;;;;;;;30.08;14.65;;;;;;;9.84;75.32;98991.35;2162757;82;30082;-67
2021/11/04 01:41:53;;;;;;;24.23;12.90;;;;;;;9.80;75.47;98985.33;2162213;82;32486;-65
2021/11/04 01:44:54;;;;;;;22.17;13.98;;;;;;;9.79;76.20;98988.13;2162675;80;32761;-64
2021/11/04 01:47:56;;;;;;;28.10;14.33;;;;;;;9.77;75.95;98976.17;2162580;82;29669;-64
2021/11/04 01:50:58;;;;;;;26.35;14.78;;;;;;;9.77;75.83;98970.83;2162103;82;27672;-65
2021/11/04 01:54:00;;;;;;;25.10;14.23;;;;;;;9.77;75.99;98968.64;2159701;82;29259;-61
2021/11/04 01:57:03;;;;;;;26.25;14.87;;;;;;;9.77;76.16;98951.27;2132392;83;32201;-65
2021/11/04 02:00:07;;;;;;;28.92;14.80;;;;;;;9.73;76.14;98946.11;2131988;83;32972;-64
2021/11/04 02:03:35;;;;;;;24.80;13.88;;;;;;;9.72;76.95;98936.88;2132099;83;30150;-65
2021/11/04 02:06:54;;;;;;;28.95;15.75;;;;;;;9.72;76.56;98938.21;2131838;82;28285;-65
2021/11/04 02:10:22;;;;;;;25.25;14.93;;;;;;;9.72;76.45;98943.06;2011952;88;28636;-65
2021/11/04 02:14:04;;;;;;;29.07;14.18;;;;;;;9.70;76.62;98946.32;2008590;88;31095;-60
2021/11/04 02:17:07;;;;;;;23.47;13.32;;;;;;;9.68;76.94;98946.90;2013146;88;34017;-65
2021/11/04 02:20:09;;;;;;;25.77;14.98;;;;;;;9.64;77.07;98940.07;2012618;87;29345;-65
2021/11/04 02:23:33;;;;;;;21.62;14.45;;;;;;;9.62;77.06;98933.97;2030084;86;27755;-64
2021/11/04 02:26:36;;;;;;;28.10;16.10;;;;;;;9.61;77.11;98923.36;2001762;88;30006;-66
2021/11/04 02:29:42;;;;;;;23.18;13.00;;;;;;;9.57;77.21;98922.25;2004356;88;31421;-60
2021/11/04 02:32:45;;;;;;;26.33;14.30;;;;;;;9.55;77.79;98924.17;2015035;87;33161;-60
2021/11/04 02:35:51;;;;;;;26.00;14.55;;;;;;;9.55;77.53;98917.95;2023859;87;30252;-65
2021/11/04 02:38:53;;;;;;;27.35;15.28;;;;;;;9.53;77.47;98913.19;1981457;88;27556;-64
2021/11/04 02:41:56;;;;;;;29.65;15.23;;;;;;;9.53;77.69;98906.50;1975875;90;28448;-65
2021/11/04 02:44:58;;;;;;;23.62;13.65;;;;;;;9.52;77.69;98908.33;1999599;87;31925;-65
2021/11/04 02:47:59;;;;;;;27.62;14.75;;;;;;;9.53;77.84;98907.38;2093176;83;32975;-64
2021/11/04 02:51:01;;;;;;;28.95;14.87;;;;;;;9.54;77.82;98905.54;2128248;83;30420;-65
2021/11/04 02:54:03;;;;;;;26.02;14.20;;;;;;;9.54;78.09;98903.74;2127916;83;28256;-65
2021/11/04 02:57:05;;;;;;;27.65;14.45;;;;;;;9.53;78.09;98906.50;2156646;82;29127;-65
2021/11/04 03:00:08;;;;;;;36.08;17.42;;;;;;;9.51;78.18;98896.42;2166648;82;32188;-65
2021/11/04 03:03:10;;;;;;;25.20;14.73;;;;;;;9.48;78.37;98891.27;2166538;82;33861;-66
2021/11/04 03:06:12;;;;;;;26.75;15.13;;;;;;;9.46;78.62;98882.50;2144662;82;30770;-65
2021/11/04 03:09:16;;;;;;;28.62;15.15;;;;;;;9.43;78.60;98876.89;2160228;82;27612;-66
2021/11/04 03:12:18;;;;;;;22.42;14.98;;;;;;;9.42;78.67;98873.34;2160630;82;29903;-63
2021/11/04 03:15:22;;;;;;;24.65;15.05;;;;;;;9.43;78.99;98872.39;2159422;82;31412;-66
2021/11/04 03:18:24;;;;;;;23.05;14.95;;;;;;;9.43;78.90;98864.87;2160273;82;33190;-64
2021/11/04 03:21:30;;;;;;;25.35;14.68;;;;;;;9.42;79.05;98860.48;2149696;81;29715;-63
2021/11/04 03:24:32;;;;;;;26.10;15.38;;;;;;;9.42;79.07;98859.14;2160520;81;27665;-66
2021/11/04 03:27:37;;;;;;;27.35;16.02;;;;;;;9.43;79.20;98856.35;2159753;82;28693;-63
2021/11/04 03:30:41;;;;;;;29.02;16.32;;;;;;;9.43;79.38;98848.83;2138986;82;31142;-64
2021/11/04 03:33:43;;;;;;;23.67;16.82;;;;;;;9.43;79.21;98855.02;2159035;82;34171;-64
2021/11/04 03:36:50;;;;;;;26.70;15.93;;;;;;;9.45;79.30;98856.23;2138532;82;30560;-66
2021/11/04 03:39:52;;;;;;;22.50;15.78;;;;;;;9.48;79.34;98853.36;2159430;82;27653;-66
2021/11/04 03:42:54;;;;;;;25.45;16.48;;;;;;;9.50;79.30;98862.62;2159858;81;30064;-63
2021/11/04 03:45:56;;;;;;;27.22;16.62;;;;;;;9.51;79.33;98857.16;2172371;81;31405;-63
2021/11/04 03:48:57;;;;;;;23.38;15.68;;;;;;;9.51;79.34;98850.97;2159617;82;33329;-64
2021/11/04 03:51:59;;;;;;;23.80;17.05;;;;;;;9.52;79.40;98850.86;2160354;82;30326;-62
2021/11/04 03:55:01;;;;;;;25.45;16.00;;;;;;;9.53;79.43;98843.67;2147850;81;27664;-61
2021/11/04 03:58:04;;;;;;;21.57;14.25;;;;;;;9.56;79.46;98836.78;2111961;83;29921;-63
2021/11/04 04:01:06;;;;;;;26.23;15.20;;;;;;;9.56;79.56;98826.97;2105432;83;32014;-65
2021/11/04 04:04:09;;;;;;;25.27;14.98;;;;;;;9.57;79.56;98821.99;2135871;82;33407;-64
2021/11/04 04:07:11;;;;;;;19.15;13.15;;;;;;;9.58;79.49;98812.14;2124268;82;29345;-64
2021/11/04 04:10:12;;;;;;;21.55;13.75;;;;;;;9.60;79.65;98808.04;2139816;82;27731;-67
2021/11/04 04:13:16;;;;;;;25.35;14.13;;;;;;;9.60;79.65;98803.53;2110802;82;28404;-66
2021/11/04 04:16:19;;;;;;;19.77;12.93;;;;;;;9.61;79.61;98791.01;2125042;83;31003;-67
2021/11/04 04:19:21;;;;;;;17.37;12.58;;;;;;;9.64;79.59;98794.81;2121762;82;33605;-66
2021/11/04 04:22:23;;;;;;;21.17;11.93;;;;;;;9.65;79.52;98795.19;2103171;83;29906;-66
2021/11/04 04:25:25;;;;;;;17.45;11.57;;;;;;;9.67;79.76;98788.78;2095263;83;27629;-64
2021/11/04 04:28:27;;;;;;;16.00;11.33;;;;;;;9.68;79.70;98782.94;2106709;82;29010;-67
2021/11/04 04:31:31;;;;;;;18.55;11.78;;;;;;;9.70;79.55;98775.67;2103452;83;32009;-66
2021/11/04 04:34:33;;;;;;;16.15;12.05;;;;;;;9.71;79.65;98770.20;2115922;83;33314;-66
2021/11/04 04:37:34;;;;;;;16.55;11.78;;;;;;;9.72;79.75;98766.56;2118024;82;29727;-66
2021/11/04 04:40:36;;;;;;;19.00;11.22;;;;;;;9.73;79.64;98756.74;2145123;82;27711;-67
2021/11/04 04:43:38;;;;;;;21.80;11.85;;;;;;;9.72;79.61;98748.34;2054054;84;29068;-65
2021/11/04 04:46:40;;;;;;;19.15;12.50;;;;;;;9.65;79.59;98730.55;2047338;85;31532;-66
2021/11/04 04:49:42;;;;;;;17.82;12.47;;;;;;;9.72;79.65;98733.64;2125336;82;34143;-65
2021/11/04 04:52:43;;;;;;;20.72;14.35;;;;;;;9.72;79.67;98723.78;2145781;82;30811;-66
2021/11/04 04:55:45;;;;;;;22.80;14.93;;;;;;;9.71;79.77;98718.05;2120775;81;27653;-65
2021/11/04 04:58:48;;;;;;;26.93;14.03;;;;;;;9.72;79.81;98716.25;2111455;82;29965;-67
2021/11/04 05:01:49;;;;;;;24.07;14.85;;;;;;;9.69;79.76;98697.25;2124001;83;32208;-67
2021/11/04 05:04:52;;;;;;;23.90;14.98;;;;;;;9.68;79.74;98687.52;2109089;83;34242;-66
2021/11/04 05:07:54;;;;;;;18.95;14.10;;;;;;;9.72;79.95;98682.83;2104346;82;29314;-67
2021/11/04 05:10:56;;;;;;;21.07;14.65;;;;;;;9.72;79.91;98680.16;2104519;83;27597;-67
2021/11/04 05:13:57;;;;;;;19.17;13.80;;;;;;;9.72;79.86;98676.14;2127268;82;29640;-66
2021/11/04 05:17:00;;;;;;;24.00;15.40;;;;;;;9.72;80.00;98670.30;2121909;83;31419;-67
2021/11/04 05:20:05;;;;;;;20.32;13.68;;;;;;;9.71;79.92;98663.23;2121673;82;33467;-67
2021/11/04 05:23:07;;;;;;;23.98;14.73;;;;;;;9.72;80.03;98662.77;2104821;83;30302;-66
2021/11/04 05:26:10;;;;;;;19.73;13.83;;;;;;;9.73;79.88;98657.80;2125727;82;27718;-66
2021/11/04 05:29:11;;;;;;;20.60;13.95;;;;;;;9.73;79.98;98654.63;2123319;82;29070;-66
2021/11/04 05:32:13;;;;;;;20.95;14.58;;;;;;;9.75;79.92;98644.30;2113872;83;31489;-66
2021/11/04 05:35:17;;;;;;;21.25;14.15;;;;;;;9.77;79.90;98639.20;2139111;82;34138;-66
2021/11/04 05:38:19;;;;;;;20.77;13.03;;;;;;;9.77;79.87;98632.52;2130749;82;30161;-66
2021/11/04 05:41:21;;;;;;;19.42;13.00;;;;;;;9.77;80.00;98633.85;2123570;83;27766;-66
2021/11/04 05:44:23;;;;;;;20.45;13.00;;;;;;;9.78;80.03;98630.22;2104623;83;29292;-67
2021/11/04 05:47:26;;;;;;;24.43;14.93;;;;;;;9.79;80.09;98632.42;2105096;83;32255;-67
2021/11/04 05:50:28;;;;;;;20.62;14.13;;;;;;;9.77;80.05;98630.34;2119198;82;34208;-63
2021/11/04 05:53:30;;;;;;;22.45;14.70;;;;;;;9.78;80.08;98621.36;2143886;82;30331;-67
2021/11/04 05:56:32;;;;;;;26.40;15.93;;;;;;;9.78;80.08;98613.33;2124928;82;28080;-67
2021/11/04 05:59:33;;;;;;;21.82;15.65;;;;;;;9.80;80.21;98607.39;2140434;82;30098;-65
2021/11/04 06:02:36;;;;;;;25.43;15.15;;;;;;;9.80;80.11;98616.25;2141066;82;31356;-61
2021/11/04 06:05:38;;;;;;;24.07;16.87;;;;;;;9.81;80.11;98613.11;2144670;81;33732;-66
2021/11/04 06:08:40;;;;;;;23.60;16.12;;;;;;;9.82;80.16;98611.64;2142052;82;29808;-66
2021/11/04 06:11:42;;;;;;;28.45;15.72;;;;;;;9.82;80.20;98603.63;2141674;82;27718;-65
2021/11/04 06:14:44;;;;;;;25.05;15.43;;;;;;;9.83;80.13;98592.46;2139325;83;29899;-63
2021/11/04 06:17:46;;;;;;;24.20;14.73;;;;;;;9.86;80.18;98593.54;2140994;83;32424;-63
2021/11/04 06:20:48;;;;;;;20.92;15.60;;;;;;;9.86;80.36;98585.05;2140763;83;34182;-62
2021/11/04 06:23:50;;;;;;;20.48;14.75;;;;;;;9.87;80.16;98577.86;2142229;83;30148;-62
2021/11/04 06:26:53;;;;;;;21.27;14.85;;;;;;;9.89;80.16;98579.95;2142529;81;27693;-65
2021/11/04 06:29:54;;;;;;;18.73;13.93;;;;;;;9.91;80.17;98580.69;2141639;83;29885;-63
2021/11/04 06:32:56;;;;;;;21.30;14.43;;;;;;;9.91;80.14;98592.73;2141525;82;31959;-62
2021/11/04 06:35:59;;;;;;;21.87;13.45;;;;;;;9.94;80.15;98602.33;2140558;81;33970;-65
2021/11/04 06:39:01;;;;;;;21.73;14.50;;;;;;;9.95;80.16;98604.91;2136233;83;30580;-62
2021/11/04 06:42:04;;;;;;;20.25;14.55;;;;;;;9.94;80.06;98604.54;2141567;82;27646;-66
2021/11/04 06:45:08;;;;;;;18.45;12.65;;;;;;;9.98;80.16;98597.13;2139112;83;29553;-67
2021/11/04 06:48:14;;;;;;;20.43;12.50;;;;;;;9.98;80.11;98577.94;2141344;81;31182;-62
2021/11/04 06:51:20;;;;;;;17.25;12.73;;;;;;;9.99;80.14;98585.00;2141465;83;33903;-64
2021/11/04 06:54:26;;;;;;;18.67;11.97;;;;;;;10.01;80.11;98587.54;2148270;82;30279;-61
2021/11/04 06:57:29;;;;;;;16.87;11.15;;;;;;;10.01;80.13;98584.87;2134826;82;27730;-61
2021/11/04 07:00:35;;;;;;;14.98;10.53;;;;;;;10.02;80.26;98583.90;2131681;83;29927;-61
2021/11/04 07:03:45;;;;;;;17.85;10.78;;;;;;;10.03;80.18;98590.46;2133425;83;31825;-62
2021/11/04 07:06:48;;;;;;;15.72;10.70;;;;;;;10.06;80.11;98578.70;2138186;83;33745;-63
2021/11/04 07:09:51;;;;;;;17.52;11.18;;;;;;;10.08;80.09;98570.54;2137690;83;29324;-62
2021/11/04 07:12:53;;;;;;;15.75;9.60;;;;;;;10.08;80.01;98557.16;2138576;83;27617;-63
2021/11/04 07:15:57;;;;;;;17.42;10.05;;;;;;;10.10;80.07;98556.06;2137956;83;29520;-67
2021/11/04 07:18:59;;;;;;;16.20;10.23;;;;;;;10.14;79.95;98548.18;2137794;83;30738;-67
2021/11/04 07:22:38;;;;;;;12.82;9.55;;;;;;;10.19;79.84;98538.45;2137219;83;34205;-66
2021/11/04 07:25:41;;;;;;;12.28;9.13;;;;;;;10.23;79.83;98537.26;2137302;83;30176;-62
2021/11/04 07:28:45;;;;;;;14.35;10.03;;;;;;;10.25;79.74;98532.64;2137339;83;27783;-65
2021/11/04 07:31:48;;;;;;;12.20;9.28;;;;;;;10.28;79.77;98521.70;2137825;83;28700;-63
2021/11/04 07:34:51;;;;;;;20.08;10.58;;;;;;;10.30;79.75;98522.91;2138883;83;31858;-65
2021/11/04 07:37:55;;;;;;;19.85;10.50;;;;;;;10.29;79.93;98511.84;2138961;83;33657;-61
2021/11/04 07:40:58;;;;;;;19.23;10.38;;;;;;;10.26;80.08;98515.62;2137895;83;30172;-59
2021/11/04 07:44:01;;;;;;;12.73;10.38;;;;;;;10.22;80.48;98519.50;2137812;83;27711;-60
2021/11/04 07:47:06;;;;;;;14.07;10.15;;;;;;;10.15;80.25;98503.56;2137828;83;28821;-59
2021/11/04 07:50:12;;;;;;;18.75;10.63;;;;;;;10.10;80.70;98498.54;2137812;83;31191;-60
2021/11/04 07:53:15;;;;;;;17.45;11.65;;;;;;;10.02;80.68;98492.94;2137932;83;33159;-59
2021/11/04 07:56:17;;;;;;;18.55;11.15;;;;;;;9.94;80.93;98488.18;2132014;81;29368;-59
2021/11/04 07:59:19;;;;;;;20.15;11.22;;;;;;;9.91;80.92;98484.89;2109656;84;27741;-60
2021/11/04 08:02:21;;;;;;;15.60;11.30;;;;;;;9.86;81.27;98478.53;2111698;84;29827;-59
2021/11/04 08:05:24;;;;;;;16.27;11.90;;;;;;;9.82;81.56;98477.09;2110930;84;31025;-59
2021/11/04 08:08:26;;;;;;;16.77;11.93;;;;;;;9.79;81.58;98467.95;2081184;84;33789;-60
2021/11/04 08:11:29;;;;;;;15.63;12.00;;;;;;;9.72;81.74;98459.05;2111561;84;29796;-60
2021/11/04 08:14:32;;;;;;;17.12;12.15;;;;;;;9.69;81.93;98449.08;2111808;83;27737;-62
2021/11/04 08:17:35;;;;;;;18.80;13.25;;;;;;;9.69;82.53;98458.44;2111712;84;29650;-61
2021/11/04 08:20:38;;;;;;;19.20;14.10;;;;;;;9.70;82.53;98454.80;2111409;83;31755;-61
2021/11/04 08:23:41;;;;;;;20.92;14.10;;;;;;;9.70;82.62;98442.27;2111931;83;33353;-61
2021/11/04 08:26:43;;;;;;;20.57;13.78;;;;;;;9.72;82.56;98451.53;2116416;84;29335;-61
2021/11/04 08:29:46;;;;;;;21.65;13.65;;;;;;;9.74;83.48;98436.22;2120482;84;27704;-65
2021/11/04 08:32:48;;;;;;;17.12;11.93;;;;;;;9.77;82.98;98431.95;2113299;84;29559;-62
2021/11/04 08:35:51;;;;;;;22.17;12.82;;;;;;;9.80;83.09;98427.71;2124379;83;33171;-60
2021/11/04 08:38:53;;;;;;;19.07;12.78;;;;;;;9.85;83.13;98442.92;2105516;84;33901;-60
2021/11/04 08:41:56;;;;;;;21.48;14.18;;;;;;;9.94;83.22;98422.64;2115614;84;29350;-60
2021/11/04 08:44:59;;;;;;;19.35;13.20;;;;;;;10.04;83.20;98419.61;2125639;83;28243;-59
2021/11/04 08:48:02;;;;;;;23.27;13.00;;;;;;;10.11;83.13;98397.23;2114164;84;28818;-60
2021/11/04 08:51:04;;;;;;;20.62;14.25;;;;;;;10.15;83.18;98403.22;2113873;84;31182;-60
2021/11/04 08:54:07;;;;;;;18.90;12.33;;;;;;;10.15;82.83;98380.48;2112677;84;34390;-60
2021/11/04 08:57:12;;;;;;;20.30;14.78;;;;;;;10.25;83.24;98373.91;2116523;81;30245;-66
2021/11/04 09:00:15;;;;;;;20.90;13.30;;;;;;;10.30;82.79;98366.34;2126034;83;27712;-60
2021/11/04 09:03:17;;;;;;;21.23;14.13;;;;;;;10.33;83.00;98370.13;2124646;83;29509;-65
2021/11/04 09:06:19;;;;;;;25.02;14.95;;;;;;;10.29;82.93;98370.86;2111534;84;31112;-60
2021/11/04 09:09:21;;;;;;;19.23;13.05;;;;;;;10.30;82.99;98367.22;2114973;84;33135;-60
2021/11/04 09:12:23;;;;;;;21.37;13.32;;;;;;;10.36;83.01;98363.19;2115570;83;30510;-64
2021/11/04 09:15:25;;;;;;;21.42;14.18;;;;;;;10.38;82.95;98359.94;2116114;84;27696;-62
2021/11/04 09:18:27;;;;;;;22.13;13.95;;;;;;;10.39;82.93;98363.45;2116515;83;29046;-60
2021/11/04 09:21:29;;;;;;;20.77;14.33;;;;;;;10.39;82.93;98355.42;2115699;84;31349;-61
2021/11/04 09:24:31;;;;;;;18.70;13.28;;;;;;;10.37;82.82;98351.98;2114917;84;34153;-62
2021/11/04 09:27:33;;;;;;;24.70;13.98;;;;;;;10.37;82.83;98344.82;2115383;84;29381;-63
2021/11/04 09:30:36;;;;;;;19.75;12.80;;;;;;;10.37;82.95;98338.60;2115555;84;27714;-62
2021/11/04 09:33:42;;;;;;;19.55;12.95;;;;;;;10.39;83.04;98346.05;2115666;83;28816;-64
2021/11/04 09:36:44;;;;;;;18.57;13.30;;;;;;;10.39;82.93;98342.04;2116030;84;31845;-63
2021/11/04 09:39:49;;;;;;;18.32;13.30;;;;;;;10.40;82.94;98344.61;2116098;83;34201;-59
2021/11/04 09:42:51;;;;;;;21.87;13.88;;;;;;;10.41;83.08;98345.45;2117364;84;30116;-62
2021/11/04 09:45:54;;;;;;;21.60;13.08;;;;;;;10.41;83.23;98345.45;2117072;84;28214;-62
2021/11/04 09:48:56;;;;;;;17.65;12.73;;;;;;;10.42;83.20;98346.68;2116715;84;29545;-60
2021/11/04 09:51:58;;;;;;;20.60;13.48;;;;;;;10.45;83.20;98342.89;2116905;84;33109;-59
2021/11/04 09:55:03;;;;;;;20.85;12.35;;;;;;;10.49;83.15;98325.62;2116527;84;33392;-59
2021/11/04 09:58:06;;;;;;;22.22;13.00;;;;;;;10.56;83.12;98334.83;2118139;83;30171;-60
2021/11/04 10:01:28;;;;;;;14.85;10.82;;;;;;;10.62;83.02;98325.44;2113313;83;27697;-63
2021/11/04 10:04:37;;;;;;;20.60;13.00;;;;;;;10.70;83.08;98321.66;2109214;83;28639;-60
2021/11/04 10:07:50;;;;;;;19.40;12.63;;;;;;;10.80;82.96;98323.09;2110736;84;31462;-62
2021/11/04 10:10:57;;;;;;;21.60;11.15;;;;;;;10.89;82.95;98320.98;2109741;84;33968;-62
2021/11/04 10:14:15;;;;;;;18.62;11.68;;;;;;;10.98;82.75;98323.39;2077753;84;29343;-66
2021/11/04 10:17:37;;;;;;;18.62;12.25;;;;;;;11.08;82.71;98325.67;2109658;84;27743;-64
2021/11/04 10:20:39;;;;;;;20.30;12.37;;;;;;;11.21;82.68;98324.13;2110463;83;29508;-65
2021/11/04 10:23:45;;;;;;;18.48;11.25;;;;;;;11.32;82.46;98327.76;2108821;84;31932;-65
2021/11/04 10:26:53;;;;;;;13.70;10.48;;;;;;;11.37;82.31;98325.52;2108918;84;33108;-63
2021/11/04 10:29:51;;;;;;;19.57;10.67;;;;;;;11.42;82.16;98323.80;2108270;84;30289;-63
2021/11/04 10:32:53;;;;;;;16.25;10.80;;;;;;;11.48;82.17;98316.56;2109915;84;27670;-64
2021/11/04 10:36:17;;;;;;;19.45;12.28;;;;;;;11.54;82.04;98315.54;2108845;84;29864;-66
2021/11/04 10:39:22;;;;;;;18.32;11.50;;;;;;;11.64;82.17;98307.55;2108839;83;32390;-60
2021/11/04 10:42:25;;;;;;;17.77;11.38;;;;;;;11.79;81.98;98305.39;2113149;84;33781;-61
2021/11/04 10:45:29;;;;;;;16.23;10.98;;;;;;;11.93;82.01;98308.70;2110394;84;30362;-61
2021/11/04 10:48:34;;;;;;;16.17;10.68;;;;;;;12.11;81.90;98303.56;2110921;84;28237;-61
2021/11/04 10:51:37;;;;;;;15.30;10.60;;;;;;;12.29;81.89;98299.75;2109471;84;29484;-62
2021/11/04 10:54:50;;;;;;;15.95;10.78;;;;;;;12.52;81.49;98293.66;2108820;84;31076;-60
2021/11/04 10:57:53;;;;;;;18.75;10.10;;;;;;;12.75;81.26;98294.25;2110338;83;33762;-62
2021/11/04 11:00:55;;;;;;;14.50;10.08;;;;;;;12.94;81.00;98291.70;2129243;82;30336;-60
2021/11/04 11:04:08;;;;;;;15.90;11.05;;;;;;;13.09;80.49;98290.80;2156307;82;27697;-61
2021/11/04 11:07:11;;;;;;;20.37;11.22;;;;;;;13.16;80.14;98282.50;2155727;82;28725;-62
2021/11/04 11:10:13;;;;;;;15.25;10.95;;;;;;;13.19;79.69;98284.43;2145760;82;31886;-62
2021/11/04 11:13:14;;;;;;;16.73;10.70;;;;;;;13.25;79.91;98298.27;2084774;84;32623;-62
2021/11/04 11:16:17;;;;;;;20.08;11.60;;;;;;;13.29;79.94;98296.52;2080940;84;30514;-63
2021/11/04 11:19:30;;;;;;;16.52;10.70;;;;;;;13.31;79.76;98266.30;2070763;85;28174;-62
2021/11/04 11:22:32;;;;;;;50.80;33.80;;;;;;;13.40;79.73;98261.94;2070836;85;28688;-66
2021/11/04 11:25:35;;;;;;;17.92;11.15;;;;;;;13.51;80.05;98271.65;2095169;83;30495;-66
2021/11/04 11:28:39;;;;;;;17.73;9.70;;;;;;;13.60;79.70;98261.38;2088607;85;33012;-66
2021/11/04 11:31:54;;;;;;;15.63;9.45;;;;;;;13.62;79.36;98254.02;2091530;85;30058;-62
2021/11/04 11:35:21;;;;;;;;;;;;;;;13.64;79.45;98256.06;2095088;84;27628;-65
2021/11/04 11:38:24;;;;;;;12.53;8.35;;;;;;;13.79;79.89;98259.62;2092530;85;28771;-64
2021/11/04 11:41:28;;;;;;;15.80;8.98;;;;;;;14.03;80.14;98259.58;2092490;84;31994;-64
2021/11/04 11:44:41;;;;;;;11.37;7.70;;;;;;;14.22;79.78;98259.99;2094637;85;32968;-63
2021/11/04 11:47:46;;;;;;;12.90;7.65;;;;;;;14.36;79.59;98258.13;2094479;85;30530;-64
2021/11/04 11:50:52;;;;;;;9.93;6.35;;;;;;;14.44;79.09;98268.16;2094669;85;27703;-63
2021/11/04 11:53:54;;;;;;;10.13;7.10;;;;;;;14.47;78.94;98267.86;2120686;83;28846;-63
2021/11/04 11:57:12;;;;;;;10.82;7.05;;;;;;;14.50;78.81;98269.39;2117792;84;32149;-64
2021/11/04 12:00:14;;;;;;;10.98;6.45;;;;;;;14.52;78.75;98274.96;2107818;83;33594;-64
2021/11/04 12:03:40;;;;;;;9.48;7.15;;;;;;;14.51;78.45;98277.30;2143928;82;30568;-63
2021/11/04 12:06:43;;;;;;;11.35;7.87;;;;;;;14.48;78.51;98297.81;2144351;83;27713;-61
2021/11/04 12:09:46;;;;;;;3.40;2.90;;;;;;;14.40;77.88;98351.09;2107693;83;28674;-61
2021/11/04 12:12:49;;;;;;;3.60;2.60;;;;;;;14.25;75.85;98368.27;2107445;84;31020;-61
2021/11/04 12:16:21;;;;;;;5.00;3.42;;;;;;;14.08;75.51;98375.77;2107036;84;34158;-62
2021/11/04 12:19:40;;;;;;;2.42;2.00;;;;;;;13.95;74.96;98378.77;2107855;83;29769;-62
2021/11/04 12:22:42;;;;;;;3.08;1.95;;;;;;;13.78;72.99;98375.83;2108225;84;27683;-61
2021/11/04 12:25:46;;;;;;;5.08;2.45;;;;;;;13.68;74.08;98381.22;2107817;84;29918;-61
2021/11/04 12:28:50;;;;;;;4.20;2.10;;;;;;;13.64;74.13;98387.03;2107743;84;31068;-64
2021/11/04 12:31:52;;;;;;;3.10;1.12;;;;;;;13.53;72.99;98401.48;2108581;84;32872;-64
2021/11/04 12:35:04;;;;;;;1.32;1.22;;;;;;;13.38;72.34;98403.23;2108016;84;30502;-64
2021/11/04 12:38:06;;;;;;;2.17;1.30;;;;;;;13.22;72.01;98406.49;2107915;84;27740;-62
2021/11/04 12:41:18;;;;;;;2.72;2.02;;;;;;;13.04;71.22;98418.91;2108027;84;28593;-63
2021/11/04 12:44:26;;;;;;;3.02;1.60;;;;;;;12.88;71.50;98421.64;2108071;84;31017;-64
2021/11/04 12:47:29;;;;;;;1.70;1.60;;;;;;;12.77;70.22;98436.51;2108072;83;33227;-64
2021/11/04 12:50:33;;;;;;;2.00;1.10;;;;;;;12.65;70.40;98459.09;2144178;82;29421;-62
2021/11/04 12:53:59;;;;;;;2.77;2.00;;;;;;;12.55;70.02;98458.58;2144308;83;27640;-64
2021/11/04 12:57:06;;;;;;;4.03;1.80;;;;;;;12.57;70.84;98474.07;2121509;82;29348;-63
2021/11/04 13:00:11;;;;;;;2.40;1.50;;;;;;;12.70;70.39;98481.88;2144324;82;31753;-63
2021/11/04 13:03:14;;;;;;;2.33;1.40;;;;;;;12.79;70.24;98490.97;2145269;82;32986;-64
2021/11/04 13:06:16;;;;;;;2.00;1.40;;;;;;;12.79;69.28;98512.97;2165147;80;30273;-65
2021/11/04 13:09:19;;;;;;;2.12;1.60;;;;;;;12.84;69.59;98519.64;2183596;80;27697;-65
2021/11/04 13:12:44;;;;;;;4.10;1.50;;;;;;;12.92;69.15;98503.67;2193316;80;28557;-64
2021/11/04 13:15:47;;;;;;;1.57;1.47;;;;;;;12.94;69.00;98499.52;2177734;81;32347;-66
2021/11/04 13:18:50;;;;;;;2.00;1.42;;;;;;;12.85;68.14;98537.47;2177552;81;34136;-65
2021/11/04 13:21:52;;;;;;;3.00;1.72;;;;;;;12.72;68.15;98553.80;2178036;80;29408;-66
2021/11/04 13:24:56;;;;;;;1.87;1.40;;;;;;;12.65;68.22;98548.62;2176972;80;27631;-66
2021/11/04 13:28:03;;;;;;;1.40;1.30;;;;;;;12.61;68.16;98558.76;2200991;80;29555;-64
2021/11/04 13:31:14;;;;;;;1.80;1.70;;;;;;;12.61;67.65;98564.12;2199594;80;31799;-65
2021/11/04 13:34:18;;;;;;;2.58;1.80;;;;;;;12.57;67.50;98571.25;2140385;83;33041;-65
2021/11/04 13:37:23;;;;;;;2.45;1.60;;;;;;;12.51;66.73;98567.27;2155561;80;30544;-66
2021/11/04 13:40:53;;;;;;;1.50;0.90;;;;;;;12.43;66.30;98569.73;2177996;81;27631;-66
2021/11/04 13:43:57;;;;;;;2.83;1.10;;;;;;;12.36;66.84;98579.31;2177914;81;28498;-66
2021/11/04 13:47:00;;;;;;;1.62;1.27;;;;;;;12.30;66.57;98590.92;2180061;80;31034;-65
2021/11/04 13:50:04;;;;;;;3.42;1.27;;;;;;;12.26;66.43;98599.37;2194754;80;33851;-66
2021/11/04 13:53:21;;;;;;;1.63;1.20;;;;;;;12.18;65.32;98601.36;2192537;80;30132;-66
2021/11/04 13:56:25;;;;;;;1.92;1.17;;;;;;;12.07;65.66;98610.81;2216570;80;27618;-64
2021/11/04 13:59:36;;;;;;;2.67;0.90;;;;;;;11.90;65.37;98625.58;2204783;80;29039;-67
2021/11/04 14:02:43;;;;;;;8.30;4.83;;;;;;;11.76;65.27;98632.07;2188221;80;31894;-67
2021/11/04 14:06:04;;;;;;;3.58;2.87;;;;;;;11.59;65.02;98632.95;2149821;82;33423;-67
2021/11/04 14:09:09;;;;;;;3.80;3.15;;;;;;;11.48;65.05;98645.04;2153212;81;29335;-65
2021/11/04 14:12:13;;;;;;;17.67;13.03;;;;;;;11.37;65.15;98645.89;2189472;81;27640;-66
2021/11/04 14:15:21;;;;;;;19.23;9.85;;;;;;;11.27;65.15;98637.73;2189418;81;28076;-67
2021/11/04 14:18:24;;;;;;;7.95;3.27;;;;;;;11.17;65.45;98657.70;2189501;81;31174;-64